createdAt,value
2018-12-30T00:00:05.136Z,10.60
2018-12-30T00:02:33.589Z,10.50
2018-12-30T00:05:02.350Z,10.50
2018-12-30T00:07:30.972Z,10.50
2018-12-30T00:09:59.313Z,10.40
2018-12-30T00:12:27.895Z,10.50
2018-12-30T00:14:56.309Z,10.60
2018-12-30T00:17:25.409Z,10.60
2018-12-30T00:19:54.258Z,10.60
2018-12-30T00:22:22.671Z,10.50
2018-12-30T00:24:51.028Z,10.40
2018-12-30T00:27:19.596Z,10.30
2018-12-30T00:29:48.008Z,10.40
2018-12-30T00:32:16.363Z,10.40
2018-12-30T00:34:44.834Z,10.50
2018-12-30T00:37:13.415Z,10.40
2018-12-30T00:39:41.911Z,10.40
2018-12-30T00:42:10.303Z,10.60
2018-12-30T00:44:38.861Z,10.50
2018-12-30T00:47:07.342Z,10.60
2018-12-30T00:49:35.647Z,10.60
2018-12-30T00:52:04.297Z,10.50
2018-12-30T00:54:32.943Z,10.60
2018-12-30T00:57:01.463Z,10.50
2018-12-30T00:59:29.976Z,10.40
2018-12-30T01:01:58.696Z,10.40
2018-12-30T01:04:27.142Z,10.50
2018-12-30T01:06:55.429Z,10.50
2018-12-30T01:09:23.971Z,10.40
2018-12-30T01:11:52.378Z,10.40
2018-12-30T01:14:20.874Z,10.40
2018-12-30T01:16:49.548Z,10.30
2018-12-30T01:19:17.803Z,10.30
2018-12-30T01:21:46.370Z,10.30
2018-12-30T01:24:14.880Z,10.40
2018-12-30T01:26:43.253Z,10.30
2018-12-30T01:29:11.811Z,10.40
2018-12-30T01:31:40.325Z,10.20
2018-12-30T01:34:08.631Z,10.10
2018-12-30T01:36:37.150Z,10.10
2018-12-30T01:39:07.168Z,10.10
2018-12-30T01:41:35.492Z,10.10
2018-12-30T01:44:04.330Z,10.10
2018-12-30T01:46:32.976Z,10.00
2018-12-30T01:49:01.497Z,10.00
2018-12-30T01:51:33.190Z,10.00
2018-12-30T01:54:00.125Z,10.00
2018-12-30T01:56:28.931Z,10.00
2018-12-30T01:58:57.325Z,10.00
2018-12-30T02:01:25.779Z,10.10
2018-12-30T02:03:54.152Z,10.00
2018-12-30T02:06:23.033Z,10.30
2018-12-30T02:08:51.334Z,10.40
2018-12-30T02:11:20.010Z,10.50
2018-12-30T02:13:48.280Z,10.50
2018-12-30T02:16:16.931Z,10.50
2018-12-30T02:18:45.348Z,10.50
2018-12-30T02:21:13.620Z,10.50
2018-12-30T02:23:42.456Z,10.60
2018-12-30T02:26:10.899Z,10.60
2018-12-30T02:28:39.334Z,10.50
2018-12-30T02:31:07.850Z,10.50
2018-12-30T02:33:36.227Z,10.40
2018-12-30T02:36:05.018Z,10.40
2018-12-30T02:38:33.470Z,10.40
2018-12-30T02:41:01.871Z,10.50
2018-12-30T02:43:30.217Z,10.50
2018-12-30T02:45:58.800Z,10.40
2018-12-30T02:48:27.314Z,10.40
2018-12-30T02:50:55.660Z,10.40
2018-12-30T02:53:24.226Z,10.40
2018-12-30T02:55:52.544Z,10.40
2018-12-30T02:58:21.100Z,10.40
2018-12-30T03:00:49.988Z,10.40
2018-12-30T03:03:18.470Z,10.20
2018-12-30T03:05:46.882Z,10.30
2018-12-30T03:08:15.533Z,10.20
2018-12-30T03:10:43.846Z,10.20
2018-12-30T03:13:12.800Z,10.40
2018-12-30T03:15:41.279Z,10.40
2018-12-30T03:18:09.600Z,10.50
2018-12-30T03:20:38.139Z,10.50
2018-12-30T03:23:06.627Z,10.60
2018-12-30T03:25:35.408Z,10.70
2018-12-30T03:28:03.819Z,10.70
2018-12-30T03:30:32.000Z,10.80
2018-12-30T03:33:00.468Z,10.80
2018-12-30T03:35:28.919Z,10.90
2018-12-30T03:37:57.401Z,10.90
2018-12-30T03:40:25.709Z,10.80
2018-12-30T03:42:54.000Z,10.80
2018-12-30T03:45:22.535Z,10.80
2018-12-30T03:47:51.021Z,10.80
2018-12-30T03:50:19.641Z,10.70
2018-12-30T03:52:48.182Z,10.90
2018-12-30T03:55:16.600Z,10.70
2018-12-30T03:57:44.956Z,10.80
2018-12-30T04:00:13.364Z,10.70
2018-12-30T04:02:41.923Z,10.70
2018-12-30T04:05:10.208Z,10.50
2018-12-30T04:07:38.550Z,10.40
2018-12-30T04:10:06.864Z,10.40
2018-12-30T04:12:35.449Z,10.30
2018-12-30T04:15:04.416Z,10.30
2018-12-30T04:17:32.879Z,10.30
2018-12-30T04:20:01.284Z,10.10
2018-12-30T04:22:29.840Z,10.20
2018-12-30T04:24:58.432Z,10.10
2018-12-30T04:27:26.740Z,10.30
2018-12-30T04:29:55.101Z,10.20
2018-12-30T04:32:23.661Z,10.20
2018-12-30T04:34:52.173Z,10.10
2018-12-30T04:37:20.700Z,10.00
2018-12-30T04:39:49.002Z,9.90
2018-12-30T04:42:17.377Z,10.00
2018-12-30T04:44:45.994Z,10.20
2018-12-30T04:47:14.704Z,10.10
2018-12-30T04:49:43.138Z,10.00
2018-12-30T04:52:11.340Z,10.20
2018-12-30T04:54:39.604Z,10.10
2018-12-30T04:57:08.156Z,9.90
2018-12-30T04:59:36.637Z,9.90
2018-12-30T05:02:05.083Z,9.90
2018-12-30T05:04:33.597Z,10.00
2018-12-30T05:07:02.091Z,10.00
2018-12-30T05:09:30.389Z,10.00
2018-12-30T05:11:58.674Z,9.80
2018-12-30T05:14:27.317Z,9.80
2018-12-30T05:16:56.020Z,9.90
2018-12-30T05:19:24.479Z,9.90
2018-12-30T05:21:52.898Z,9.80
2018-12-30T05:24:21.371Z,9.90
2018-12-30T05:26:49.717Z,9.90
2018-12-30T05:29:18.302Z,9.90
2018-12-30T05:31:46.716Z,10.00
2018-12-30T05:34:15.011Z,10.00
2018-12-30T05:36:43.535Z,10.00
2018-12-30T05:39:11.913Z,9.90
2018-12-30T05:41:40.330Z,10.00
2018-12-30T05:44:08.703Z,10.00
2018-12-30T05:46:37.251Z,10.10
2018-12-30T05:49:05.764Z,10.10
2018-12-30T05:51:34.263Z,10.00
2018-12-30T05:54:02.806Z,10.00
2018-12-30T05:56:32.000Z,10.00
2018-12-30T05:59:00.580Z,10.10
2018-12-30T06:01:28.886Z,10.00
2018-12-30T06:03:57.073Z,10.00
2018-12-30T06:06:26.657Z,10.00
2018-12-30T06:08:55.425Z,10.20
2018-12-30T06:11:23.928Z,10.20
2018-12-30T06:13:52.480Z,10.20
2018-12-30T06:16:20.879Z,10.10
2018-12-30T06:18:49.300Z,10.10
2018-12-30T06:21:18.126Z,10.20
2018-12-30T06:23:46.442Z,10.30
2018-12-30T06:26:14.817Z,10.40
2018-12-30T06:28:42.881Z,10.40
2018-12-30T06:31:11.176Z,10.40
2018-12-30T06:33:39.654Z,10.30
2018-12-30T06:36:08.192Z,10.60
2018-12-30T06:38:36.773Z,10.60
2018-12-30T06:41:05.285Z,10.70
2018-12-30T06:43:33.739Z,10.70
2018-12-30T06:46:21.362Z,11.20
2018-12-30T06:48:49.944Z,12.00
2018-12-30T06:51:18.262Z,12.70
2018-12-30T06:53:46.736Z,13.30
2018-12-30T06:56:15.079Z,13.70
2018-12-30T06:58:43.597Z,14.10
2018-12-30T07:01:12.042Z,14.50
2018-12-30T07:03:40.623Z,15.00
2018-12-30T07:06:08.839Z,14.70
2018-12-30T07:08:37.112Z,14.40
2018-12-30T07:11:05.657Z,15.00
2018-12-30T07:13:34.181Z,15.40
2018-12-30T07:16:02.717Z,15.40
2018-12-30T07:18:30.996Z,15.80
2018-12-30T07:20:59.678Z,16.20
2018-12-30T07:23:28.093Z,16.30
2018-12-30T07:25:56.641Z,16.50
2018-12-30T07:28:44.272Z,16.90
2018-12-30T07:31:12.725Z,17.60
2018-12-30T07:33:40.961Z,17.90
2018-12-30T07:36:09.505Z,17.90
2018-12-30T07:38:38.036Z,18.10
2018-12-30T07:41:06.386Z,18.30
2018-12-30T07:43:34.946Z,18.80
2018-12-30T07:46:03.576Z,18.90
2018-12-30T07:48:31.826Z,19.00
2018-12-30T07:51:00.388Z,19.00
2018-12-30T07:53:28.901Z,18.70
2018-12-30T07:55:57.236Z,19.40
2018-12-30T07:58:25.828Z,20.20
2018-12-30T08:00:54.412Z,20.90
2018-12-30T08:03:22.811Z,21.30
2018-12-30T08:05:51.207Z,22.20
2018-12-30T08:08:19.447Z,22.80
2018-12-30T08:10:48.127Z,21.70
2018-12-30T08:13:16.531Z,20.80
2018-12-30T08:15:44.943Z,20.30
2018-12-30T08:18:13.466Z,19.50
2018-12-30T08:20:41.772Z,18.60
2018-12-30T08:23:10.429Z,18.30
2018-12-30T08:25:38.944Z,17.90
2018-12-30T08:28:07.326Z,17.60
2018-12-30T08:30:35.971Z,17.60
2018-12-30T08:33:04.554Z,17.60
2018-12-30T08:35:34.793Z,17.30
2018-12-30T08:38:03.357Z,17.10
2018-12-30T08:40:31.675Z,16.70
2018-12-30T08:43:21.003Z,16.30
2018-12-30T08:45:49.692Z,16.10
2018-12-30T08:48:18.095Z,16.00
2018-12-30T08:50:46.554Z,15.80
2018-12-30T08:53:15.232Z,15.70
2018-12-30T08:55:43.637Z,15.70
2018-12-30T08:58:12.093Z,15.70
2018-12-30T09:00:40.572Z,16.30
2018-12-30T09:03:08.884Z,17.70
2018-12-30T09:05:37.228Z,18.60
2018-12-30T09:08:05.844Z,19.20
2018-12-30T09:10:34.216Z,19.50
2018-12-30T09:13:03.076Z,19.50
2018-12-30T09:15:31.490Z,20.00
2018-12-30T09:17:59.853Z,21.20
2018-12-30T09:20:28.343Z,22.40
2018-12-30T09:22:56.896Z,23.00
2018-12-30T09:25:25.304Z,23.70
2018-12-30T09:27:53.699Z,23.90
2018-12-30T09:30:22.233Z,24.40
2018-12-30T09:32:52.200Z,24.60
2018-12-30T09:35:20.725Z,24.80
2018-12-30T09:37:49.312Z,25.40
2018-12-30T09:40:17.725Z,25.70
2018-12-30T09:42:46.183Z,26.20
2018-12-30T09:45:14.566Z,26.80
2018-12-30T09:47:42.771Z,26.90
2018-12-30T09:50:11.408Z,26.60
2018-12-30T09:52:39.820Z,25.90
2018-12-30T09:55:08.202Z,25.10
2018-12-30T09:57:36.848Z,24.10
2018-12-30T10:00:05.398Z,23.00
2018-12-30T10:02:33.728Z,22.10
2018-12-30T10:05:03.054Z,21.50
2018-12-30T10:07:31.415Z,21.20
2018-12-30T10:09:59.968Z,21.00
2018-12-30T10:12:28.480Z,20.30
2018-12-30T10:14:56.962Z,20.10
2018-12-30T10:17:25.408Z,19.80
2018-12-30T10:19:53.994Z,19.60
2018-12-30T10:22:22.514Z,19.20
2018-12-30T10:24:50.803Z,19.00
2018-12-30T10:27:19.432Z,18.60
2018-12-30T10:29:47.849Z,18.50
2018-12-30T10:32:16.306Z,18.30
2018-12-30T10:34:44.841Z,18.20
2018-12-30T10:37:13.252Z,18.20
2018-12-30T10:39:41.682Z,18.00
2018-12-30T10:42:10.108Z,18.00
2018-12-30T10:44:38.517Z,18.00
2018-12-30T10:47:07.173Z,17.80
2018-12-30T10:49:35.697Z,17.90
2018-12-30T10:52:03.971Z,17.80
2018-12-30T10:54:32.267Z,17.80
2018-12-30T10:57:00.668Z,17.90
2018-12-30T10:59:29.267Z,17.90
2018-12-30T11:01:57.707Z,17.90
2018-12-30T11:04:26.036Z,17.90
2018-12-30T11:06:54.646Z,18.00
2018-12-30T11:09:23.121Z,18.10
2018-12-30T11:11:51.467Z,18.20
2018-12-30T11:14:19.764Z,18.50
2018-12-30T11:16:48.322Z,18.40
2018-12-30T11:19:16.847Z,18.40
2018-12-30T11:21:45.426Z,18.40
2018-12-30T11:24:13.787Z,18.60
2018-12-30T11:26:42.244Z,18.70
2018-12-30T11:29:10.829Z,18.70
2018-12-30T11:31:39.053Z,18.90
2018-12-30T11:34:07.584Z,19.40
2018-12-30T11:36:35.983Z,20.10
2018-12-30T11:39:05.859Z,20.90
2018-12-30T11:41:34.558Z,21.50
2018-12-30T11:44:02.977Z,22.60
2018-12-30T11:46:31.340Z,22.90
2018-12-30T11:48:59.691Z,22.60
2018-12-30T11:51:28.016Z,21.60
2018-12-30T11:53:56.654Z,21.70
2018-12-30T11:56:25.175Z,21.10
2018-12-30T11:58:53.553Z,20.90
2018-12-30T12:01:22.095Z,20.80
2018-12-30T12:03:50.593Z,20.40
2018-12-30T12:06:19.231Z,20.30
2018-12-30T12:08:47.846Z,19.90
2018-12-30T12:11:16.427Z,19.70
2018-12-30T12:14:04.055Z,19.70
2018-12-30T12:16:32.505Z,19.80
2018-12-30T12:19:00.857Z,19.80
2018-12-30T12:21:29.313Z,19.70
2018-12-30T12:23:57.877Z,19.50
2018-12-30T12:26:26.187Z,19.10
2018-12-30T12:28:54.449Z,18.80
2018-12-30T12:31:22.913Z,18.60
2018-12-30T12:33:51.412Z,18.50
2018-12-30T12:36:19.866Z,18.30
2018-12-30T12:38:48.503Z,18.20
2018-12-30T12:41:16.765Z,18.00
2018-12-30T12:43:45.228Z,17.80
2018-12-30T12:46:13.508Z,17.70
2018-12-30T12:48:42.166Z,17.40
2018-12-30T12:51:10.584Z,17.50
2018-12-30T12:53:39.120Z,17.50
2018-12-30T12:56:07.610Z,17.50
2018-12-30T12:58:36.230Z,17.20
2018-12-30T13:01:06.319Z,16.90
2018-12-30T13:03:34.721Z,16.80
2018-12-30T13:06:03.476Z,16.80
2018-12-30T13:08:31.964Z,16.90
2018-12-30T13:11:00.355Z,16.90
2018-12-30T13:13:28.916Z,17.10
2018-12-30T13:16:03.336Z,17.20
2018-12-30T13:18:27.844Z,17.30
2018-12-30T13:20:56.405Z,17.40
2018-12-30T13:23:24.797Z,17.50
2018-12-30T13:25:53.079Z,17.80
2018-12-30T13:28:21.641Z,17.80
2018-12-30T13:30:50.177Z,18.00
2018-12-30T13:33:18.531Z,18.10
2018-12-30T13:35:47.128Z,17.80
2018-12-30T13:38:15.767Z,17.70
2018-12-30T13:40:44.088Z,17.70
2018-12-30T13:43:12.468Z,17.60
2018-12-30T13:45:41.208Z,17.40
2018-12-30T13:48:09.622Z,17.60
2018-12-30T13:50:38.111Z,17.90
2018-12-30T13:53:09.623Z,18.00
2018-12-30T13:55:38.203Z,18.30
2018-12-30T13:58:06.729Z,18.20
2018-12-30T14:00:35.043Z,18.60
2018-12-30T14:03:03.745Z,18.80
2018-12-30T14:05:32.260Z,19.10
2018-12-30T14:08:00.624Z,19.40
2018-12-30T14:10:28.880Z,19.70
2018-12-30T14:12:57.400Z,19.30
2018-12-30T14:15:25.951Z,19.40
2018-12-30T14:17:54.343Z,19.60
2018-12-30T14:20:22.801Z,19.20
2018-12-30T14:22:51.284Z,18.80
2018-12-30T14:25:19.579Z,18.80
2018-12-30T14:27:48.036Z,18.50
2018-12-30T14:30:16.449Z,18.30
2018-12-30T14:32:44.817Z,18.10
2018-12-30T14:35:13.272Z,17.90
2018-12-30T14:37:41.855Z,17.60
2018-12-30T14:40:10.306Z,17.40
2018-12-30T14:42:38.635Z,17.30
2018-12-30T14:45:08.325Z,17.20
2018-12-30T14:47:36.904Z,16.80
2018-12-30T14:50:07.741Z,16.70
2018-12-30T14:52:36.259Z,16.50
2018-12-30T14:55:04.936Z,16.30
2018-12-30T14:57:33.218Z,16.20
2018-12-30T15:00:01.728Z,16.20
2018-12-30T15:02:30.345Z,16.10
2018-12-30T15:04:58.757Z,16.10
2018-12-30T15:07:27.196Z,16.00
2018-12-30T15:09:55.622Z,15.90
2018-12-30T15:12:24.165Z,15.80
2018-12-30T15:14:52.587Z,15.80
2018-12-30T15:17:20.852Z,15.90
2018-12-30T15:19:49.401Z,15.70
2018-12-30T15:22:17.925Z,15.60
2018-12-30T15:24:46.346Z,15.50
2018-12-30T15:27:14.843Z,15.30
2018-12-30T15:29:43.323Z,15.20
2018-12-30T15:32:11.735Z,15.10
2018-12-30T15:34:40.126Z,15.20
2018-12-30T15:37:08.867Z,15.20
2018-12-30T15:39:37.344Z,15.20
2018-12-30T15:42:05.883Z,15.20
2018-12-30T15:44:34.412Z,15.00
2018-12-30T15:47:02.992Z,15.00
2018-12-30T15:49:31.312Z,14.90
2018-12-30T15:51:59.789Z,15.00
2018-12-30T15:54:28.095Z,14.90
2018-12-30T15:56:56.332Z,15.00
2018-12-30T15:59:24.752Z,14.90
2018-12-30T16:04:42.646Z,14.90
2018-12-30T16:07:11.006Z,14.80
2018-12-30T16:09:39.591Z,14.90
2018-12-30T16:12:08.088Z,14.70
2018-12-30T16:14:36.276Z,14.80
2018-12-30T16:17:04.650Z,14.80
2018-12-30T16:19:33.205Z,14.80
2018-12-30T16:22:01.617Z,14.70
2018-12-30T16:24:30.000Z,14.60
2018-12-30T16:26:58.342Z,14.50
2018-12-30T16:29:26.637Z,14.60
2018-12-30T16:31:55.195Z,14.60
2018-12-30T16:34:23.688Z,14.60
2018-12-30T16:36:52.084Z,14.50
2018-12-30T16:39:20.365Z,14.50
2018-12-30T16:41:48.904Z,14.60
2018-12-30T16:44:17.495Z,14.60
2018-12-30T16:46:45.932Z,14.50
2018-12-30T16:49:14.285Z,14.60
2018-12-30T16:51:42.564Z,14.50
2018-12-30T16:54:10.729Z,13.80
2018-12-30T16:56:39.300Z,12.80
2018-12-30T16:59:07.797Z,13.10
2018-12-30T17:01:36.077Z,12.90
2018-12-30T17:04:04.928Z,13.30
2018-12-30T17:06:34.001Z,13.60
2018-12-30T17:09:04.184Z,13.80
2018-12-30T17:11:32.729Z,14.00
2018-12-30T17:14:01.120Z,13.90
2018-12-30T17:16:29.308Z,13.70
2018-12-30T17:18:57.860Z,13.70
2018-12-30T17:21:26.285Z,13.80
2018-12-30T17:23:54.752Z,13.80
2018-12-30T17:26:23.197Z,13.80
2018-12-30T17:28:51.711Z,13.90
2018-12-30T17:31:20.088Z,13.90
2018-12-30T17:33:48.436Z,13.90
2018-12-30T17:36:16.871Z,13.90
2018-12-30T17:38:46.368Z,14.10
2018-12-30T17:41:14.697Z,14.20
2018-12-30T17:43:43.379Z,13.90
2018-12-30T17:46:18.139Z,14.00
2018-12-30T17:48:41.997Z,14.00
2018-12-30T17:51:10.307Z,14.00
2018-12-30T17:53:38.551Z,14.00
2018-12-30T17:56:07.383Z,13.90
2018-12-30T17:58:35.817Z,13.90
2018-12-30T18:01:04.200Z,13.80
2018-12-30T18:03:32.552Z,13.90
2018-12-30T18:06:01.174Z,13.90
2018-12-30T18:08:29.435Z,13.90
2018-12-30T18:10:57.772Z,13.80
2018-12-30T18:13:26.373Z,13.70
2018-12-30T18:15:54.671Z,13.60
2018-12-30T18:18:23.141Z,13.50
2018-12-30T18:21:11.064Z,13.50
2018-12-30T18:23:39.546Z,13.60
2018-12-30T18:26:08.243Z,13.60
2018-12-30T18:28:36.633Z,13.40
2018-12-30T18:31:05.194Z,13.40
2018-12-30T18:33:33.774Z,13.60
2018-12-30T18:36:02.191Z,13.60
2018-12-30T18:38:30.638Z,13.40
2018-12-30T18:40:59.035Z,13.50
2018-12-30T18:43:27.493Z,13.50
2018-12-30T18:45:56.109Z,13.20
2018-12-30T18:48:24.511Z,13.40
2018-12-30T18:50:52.854Z,13.20
2018-12-30T18:53:21.346Z,13.30
2018-12-30T18:55:49.729Z,13.30
2018-12-30T18:58:18.085Z,13.20
2018-12-30T19:00:46.452Z,13.30
2018-12-30T19:03:14.752Z,13.20
2018-12-30T19:05:43.302Z,13.30
2018-12-30T19:08:11.817Z,13.30
2018-12-30T19:10:40.189Z,13.30
2018-12-30T19:13:08.465Z,13.20
2018-12-30T19:15:37.019Z,13.20
2018-12-30T19:18:05.423Z,13.20
2018-12-30T19:20:33.732Z,13.20
2018-12-30T19:23:02.169Z,13.20
2018-12-30T19:25:30.447Z,13.20
2018-12-30T19:27:59.360Z,13.00
2018-12-30T19:30:27.696Z,13.10
2018-12-30T19:32:56.012Z,13.00
2018-12-30T19:35:24.320Z,13.00
2018-12-30T19:37:52.833Z,12.90
2018-12-30T19:40:21.352Z,12.80
2018-12-30T19:42:49.731Z,12.80
2018-12-30T19:45:18.103Z,12.80
2018-12-30T19:47:46.653Z,12.80
2018-12-30T19:50:15.075Z,12.70
2018-12-30T19:52:43.439Z,12.60
2018-12-30T19:55:11.728Z,12.60
2018-12-30T19:57:40.103Z,12.50
2018-12-30T20:00:10.419Z,12.50
2018-12-30T20:02:38.992Z,12.40
2018-12-30T20:05:07.546Z,12.50
2018-12-30T20:07:36.185Z,12.50
2018-12-30T20:10:05.370Z,12.50
2018-12-30T20:12:33.840Z,12.50
2018-12-30T20:15:02.287Z,12.40
2018-12-30T20:17:30.870Z,12.30
2018-12-30T20:19:59.576Z,12.30
2018-12-30T20:22:27.937Z,12.20
2018-12-30T20:24:56.523Z,11.90
2018-12-30T20:27:25.032Z,11.90
2018-12-30T20:29:53.478Z,11.90
2018-12-30T20:32:21.684Z,11.80
2018-12-30T20:34:50.233Z,11.70
2018-12-30T20:37:18.744Z,11.50
2018-12-30T20:39:47.112Z,11.20
2018-12-30T20:42:15.407Z,11.20
2018-12-30T20:44:43.776Z,11.30
2018-12-30T20:47:12.327Z,11.10
2018-12-30T20:49:40.847Z,11.10
2018-12-30T20:52:09.200Z,11.10
2018-12-30T20:54:37.492Z,11.10
2018-12-30T20:57:05.940Z,11.10
2018-12-30T20:59:34.522Z,11.00
2018-12-30T21:02:02.834Z,11.00
2018-12-30T21:04:31.176Z,11.00
2018-12-30T21:06:59.626Z,10.90
2018-12-30T21:09:27.845Z,10.90
2018-12-30T21:11:56.157Z,10.90
2018-12-30T21:14:24.624Z,10.90
2018-12-30T21:16:52.891Z,10.80
2018-12-30T21:19:21.373Z,10.90
2018-12-30T21:21:49.836Z,10.90
2018-12-30T21:24:18.152Z,10.70
2018-12-30T21:26:46.680Z,10.60
2018-12-30T21:29:15.173Z,10.80
2018-12-30T21:31:43.479Z,10.80
2018-12-30T21:34:11.826Z,10.80
2018-12-30T21:36:40.294Z,10.70
2018-12-30T21:39:08.774Z,10.70
2018-12-30T21:41:37.291Z,10.70
2018-12-30T21:44:05.772Z,10.60
2018-12-30T21:46:34.163Z,10.40
2018-12-30T21:49:02.699Z,10.40
2018-12-30T21:51:31.190Z,10.40
2018-12-30T21:53:59.493Z,10.30
2018-12-30T21:56:27.873Z,10.40
2018-12-30T21:58:56.476Z,10.10
2018-12-30T22:01:24.720Z,10.20
2018-12-30T22:03:53.169Z,10.20
2018-12-30T22:06:21.751Z,10.00
2018-12-30T22:08:50.265Z,10.00
2018-12-30T22:11:18.609Z,9.90
2018-12-30T22:13:46.860Z,9.90
2018-12-30T22:16:15.366Z,9.80
2018-12-30T22:18:43.768Z,10.10
2018-12-30T22:21:12.224Z,10.20
2018-12-30T22:23:40.809Z,10.40
2018-12-30T22:26:09.287Z,10.40
2018-12-30T22:28:37.826Z,10.50
2018-12-30T22:31:06.089Z,10.70
2018-12-30T22:33:34.552Z,10.70
2018-12-30T22:36:03.026Z,10.90
2018-12-30T22:38:31.484Z,11.00
2018-12-30T22:41:00.067Z,11.00
2018-12-30T22:43:28.650Z,11.00
2018-12-30T22:45:57.151Z,11.00
2018-12-30T22:48:25.546Z,11.10
2018-12-30T22:50:54.035Z,11.10
2018-12-30T22:53:22.503Z,11.10
2018-12-30T22:55:50.880Z,11.10
2018-12-30T22:58:19.430Z,11.20
2018-12-30T23:00:57.549Z,11.10
2018-12-30T23:03:26.016Z,11.20
2018-12-30T23:05:54.332Z,11.20
2018-12-30T23:08:22.975Z,11.30
2018-12-30T23:10:54.732Z,11.40
2018-12-30T23:13:23.215Z,10.70
2018-12-30T23:15:51.553Z,10.10
2018-12-30T23:18:20.175Z,9.60
2018-12-30T23:20:48.797Z,9.40
2018-12-30T23:23:17.441Z,9.10
2018-12-30T23:25:47.978Z,9.20
2018-12-30T23:28:16.286Z,9.00
2018-12-30T23:30:44.931Z,9.20
2018-12-30T23:33:13.522Z,9.60
2018-12-30T23:35:41.830Z,10.00
2018-12-30T23:38:10.211Z,10.20
2018-12-30T23:40:38.552Z,10.00
2018-12-30T23:43:07.230Z,10.30
2018-12-30T23:45:35.735Z,10.40
2018-12-30T23:48:04.241Z,10.60
2018-12-30T23:50:32.491Z,10.40
2018-12-30T23:53:01.801Z,10.40
2018-12-30T23:55:30.155Z,10.40
2018-12-30T23:57:58.444Z,10.30
